createdAt,value
2018-12-20T00:01:20.271Z,63.00
2018-12-20T00:02:55.712Z,62.45
2018-12-20T00:04:31.482Z,69.47
2018-12-20T00:06:07.078Z,67.62
2018-12-20T00:07:42.730Z,65.55
2018-12-20T00:09:18.187Z,62.65
2018-12-20T00:10:53.821Z,64.60
2018-12-20T00:12:29.394Z,62.80
2018-12-20T00:14:05.054Z,64.47
2018-12-20T00:15:40.554Z,63.58
2018-12-20T00:17:21.219Z,63.73
2018-12-20T00:18:56.851Z,69.75
2018-12-20T00:20:32.393Z,64.70
2018-12-20T00:22:09.359Z,66.50
2018-12-20T00:23:45.062Z,64.07
2018-12-20T00:25:20.877Z,67.65
2018-12-20T00:26:56.538Z,66.45
2018-12-20T00:28:32.124Z,70.40
2018-12-20T00:30:08.197Z,67.92
2018-12-20T00:31:43.704Z,65.85
2018-12-20T00:33:19.101Z,66.65
2018-12-20T00:34:54.644Z,67.90
2018-12-20T00:36:30.201Z,62.95
2018-12-20T00:38:05.972Z,62.58
2018-12-20T00:39:41.629Z,61.70
2018-12-20T00:41:17.142Z,59.13
2018-12-20T00:42:52.687Z,63.87
2018-12-20T00:44:28.191Z,61.02
2018-12-20T00:46:03.844Z,64.30
2018-12-20T00:47:39.276Z,61.80
2018-12-20T00:49:14.810Z,61.85
2018-12-20T00:50:50.326Z,65.40
2018-12-20T00:52:25.819Z,61.77
2018-12-20T00:54:01.297Z,58.15
2018-12-20T00:55:36.832Z,60.35
2018-12-20T00:57:12.405Z,61.25
2018-12-20T00:58:47.857Z,57.30
2018-12-20T01:00:23.359Z,63.50
2018-12-20T01:01:59.000Z,58.38
2018-12-20T01:03:34.604Z,64.67
2018-12-20T01:05:10.122Z,62.15
2018-12-20T01:06:45.538Z,62.88
2018-12-20T01:08:21.060Z,59.73
2018-12-20T01:09:56.628Z,58.38
2018-12-20T01:11:32.232Z,61.10
2018-12-20T01:13:07.981Z,62.45
2018-12-20T01:14:45.482Z,61.00
2018-12-20T01:16:20.961Z,62.15
2018-12-20T01:17:56.397Z,60.70
2018-12-20T01:19:31.970Z,59.10
2018-12-20T01:21:07.554Z,59.53
2018-12-20T01:22:42.986Z,63.95
2018-12-20T01:24:18.598Z,60.10
2018-12-20T01:25:54.273Z,59.83
2018-12-20T01:27:29.793Z,63.13
2018-12-20T01:29:05.415Z,61.00
2018-12-20T01:30:41.041Z,62.98
2018-12-20T01:32:17.049Z,61.80
2018-12-20T01:33:52.661Z,59.98
2018-12-20T01:35:28.250Z,65.17
2018-12-20T01:37:03.864Z,60.60
2018-12-20T01:38:39.679Z,65.65
2018-12-20T01:40:15.442Z,68.00
2018-12-20T01:41:50.841Z,61.15
2018-12-20T01:43:26.487Z,62.83
2018-12-20T01:45:01.884Z,67.37
2018-12-20T01:46:37.373Z,61.28
2018-12-20T01:48:12.803Z,63.15
2018-12-20T01:49:48.341Z,62.40
2018-12-20T01:51:23.933Z,67.20
2018-12-20T01:52:59.413Z,67.47
2018-12-20T01:54:34.734Z,63.98
2018-12-20T01:56:10.265Z,67.45
2018-12-20T01:57:45.964Z,65.35
2018-12-20T01:59:21.583Z,66.33
2018-12-20T02:00:57.091Z,61.23
2018-12-20T02:02:32.680Z,63.38
2018-12-20T02:04:08.412Z,66.85
2018-12-20T02:05:43.969Z,63.50
2018-12-20T02:07:19.512Z,72.22
2018-12-20T02:08:55.284Z,68.57
2018-12-20T02:10:30.828Z,66.92
2018-12-20T02:12:06.324Z,69.20
2018-12-20T02:13:42.008Z,72.00
2018-12-20T02:15:17.509Z,69.30
2018-12-20T02:16:53.095Z,64.92
2018-12-20T02:18:28.651Z,70.52
2018-12-20T02:20:04.791Z,69.22
2018-12-20T02:21:40.642Z,69.97
2018-12-20T02:23:16.196Z,69.32
2018-12-20T02:24:51.805Z,68.45
2018-12-20T02:26:28.258Z,67.67
2018-12-20T02:28:04.002Z,70.37
2018-12-20T02:29:39.738Z,68.17
2018-12-20T02:31:15.459Z,68.15
2018-12-20T02:32:51.021Z,73.17
2018-12-20T02:34:26.835Z,72.72
2018-12-20T02:36:02.550Z,71.95
2018-12-20T02:37:38.247Z,65.65
2018-12-20T02:39:13.920Z,67.60
2018-12-20T02:40:49.502Z,68.60
2018-12-20T02:42:25.143Z,65.75
2018-12-20T02:44:00.885Z,66.10
2018-12-20T02:45:36.776Z,63.98
2018-12-20T02:47:12.320Z,66.10
2018-12-20T02:48:47.986Z,67.17
2018-12-20T02:50:23.670Z,62.78
2018-12-20T02:51:59.580Z,64.95
2018-12-20T02:53:35.317Z,63.60
2018-12-20T02:55:10.991Z,63.83
2018-12-20T02:56:46.746Z,63.10
2018-12-20T02:58:22.534Z,63.78
2018-12-20T02:59:58.125Z,67.37
2018-12-20T03:01:33.526Z,63.48
2018-12-20T03:03:09.155Z,62.95
2018-12-20T03:04:45.063Z,63.58
2018-12-20T03:06:20.726Z,66.92
2018-12-20T03:07:56.421Z,62.73
2018-12-20T03:09:32.255Z,61.92
2018-12-20T03:11:08.053Z,59.00
2018-12-20T03:12:43.623Z,62.10
2018-12-20T03:14:19.607Z,65.03
2018-12-20T03:15:55.016Z,59.85
2018-12-20T03:17:31.764Z,63.20
2018-12-20T03:19:08.088Z,65.60
2018-12-20T03:20:44.750Z,63.08
2018-12-20T03:22:20.867Z,65.17
2018-12-20T03:23:56.897Z,65.25
2018-12-20T03:25:33.316Z,65.05
2018-12-20T03:27:10.010Z,63.60
2018-12-20T03:28:46.816Z,68.28
2018-12-20T03:30:23.921Z,65.83
2018-12-20T03:32:00.421Z,58.90
2018-12-20T03:33:37.723Z,60.33
2018-12-20T03:35:13.721Z,66.07
2018-12-20T03:36:50.284Z,60.23
2018-12-20T03:38:27.204Z,63.38
2018-12-20T03:40:03.617Z,68.87
2018-12-20T03:41:40.170Z,66.97
2018-12-20T03:43:16.478Z,70.52
2018-12-20T03:44:53.263Z,61.23
2018-12-20T03:46:30.462Z,60.90
2018-12-20T03:48:07.418Z,60.05
2018-12-20T03:49:43.823Z,65.67
2018-12-20T03:51:20.634Z,63.20
2018-12-20T03:52:57.006Z,59.93
2018-12-20T03:54:34.053Z,63.55
2018-12-20T03:56:10.858Z,60.20
2018-12-20T03:57:47.460Z,65.00
2018-12-20T03:59:24.089Z,67.87
2018-12-20T04:01:00.452Z,65.65
2018-12-20T04:02:38.619Z,65.87
2018-12-20T04:04:16.033Z,61.92
2018-12-20T04:05:53.116Z,63.00
2018-12-20T04:07:30.158Z,66.30
2018-12-20T04:09:09.507Z,65.72
2018-12-20T04:10:47.556Z,71.00
2018-12-20T04:12:25.089Z,72.42
2018-12-20T04:14:02.259Z,65.28
2018-12-20T04:15:39.884Z,68.87
2018-12-20T04:17:17.079Z,66.17
2018-12-20T04:18:54.302Z,63.02
2018-12-20T04:20:31.221Z,60.98
2018-12-20T04:22:08.797Z,65.00
2018-12-20T04:23:43.946Z,66.25
2018-12-20T04:25:18.970Z,65.57
2018-12-20T04:26:54.009Z,70.22
2018-12-20T04:28:29.086Z,63.23
2018-12-20T04:30:04.184Z,65.32
2018-12-20T04:31:39.151Z,61.33
2018-12-20T04:33:14.833Z,60.25
2018-12-20T04:34:51.317Z,59.42
2018-12-20T04:36:26.468Z,62.98
2018-12-20T04:38:01.540Z,64.58
2018-12-20T04:39:36.928Z,59.45
2018-12-20T04:41:12.180Z,60.23
2018-12-20T04:42:47.358Z,57.93
2018-12-20T04:44:22.658Z,55.70
2018-12-20T04:46:08.046Z,62.27
2018-12-20T04:47:45.317Z,61.40
2018-12-20T04:49:32.294Z,61.53
2018-12-20T04:53:25.813Z,63.40
2018-12-20T04:55:01.362Z,64.27
2018-12-20T04:56:57.149Z,60.00
2018-12-20T04:58:32.998Z,59.38
2018-12-20T05:00:08.579Z,58.70
2018-12-20T05:01:43.725Z,62.85
2018-12-20T05:03:19.204Z,61.15
2018-12-20T05:04:54.475Z,60.43
2018-12-20T05:06:29.681Z,61.77
2018-12-20T05:08:04.781Z,59.30
2018-12-20T05:09:39.957Z,60.88
2018-12-20T05:11:35.241Z,63.92
2018-12-20T05:13:23.803Z,57.58
2018-12-20T05:14:58.766Z,57.90
2018-12-20T05:16:33.758Z,56.55
2018-12-20T05:18:10.636Z,55.55
2018-12-20T05:19:45.690Z,54.80
2018-12-20T05:21:20.795Z,54.55
2018-12-20T05:23:07.583Z,57.60
2018-12-20T05:24:48.833Z,61.53
2018-12-20T05:26:41.180Z,57.70
2018-12-20T05:28:16.787Z,59.95
2018-12-20T05:31:53.443Z,54.55
2018-12-20T05:33:50.282Z,55.38
2018-12-20T05:36:10.727Z,56.65
2018-12-20T05:37:57.052Z,55.83
2018-12-20T05:42:12.463Z,55.45
2018-12-20T05:43:48.896Z,57.20
2018-12-20T05:45:24.857Z,58.30
2018-12-20T05:47:01.181Z,57.48
2018-12-20T05:48:37.508Z,55.00
2018-12-20T05:50:13.257Z,56.60
2018-12-20T05:51:49.448Z,60.23
2018-12-20T05:53:25.324Z,60.50
2018-12-20T05:55:01.462Z,59.10
2018-12-20T05:56:37.234Z,62.05
2018-12-20T05:58:13.365Z,57.73
2018-12-20T05:59:49.288Z,62.90
2018-12-20T06:01:25.499Z,60.43
2018-12-20T06:03:01.223Z,65.95
2018-12-20T06:04:37.245Z,61.02
2018-12-20T06:06:13.205Z,64.55
2018-12-20T06:07:48.920Z,62.10
2018-12-20T06:09:24.864Z,67.45
2018-12-20T06:11:00.964Z,68.00
2018-12-20T06:12:36.863Z,71.37
2018-12-20T06:14:12.708Z,62.33
2018-12-20T06:15:48.689Z,63.60
2018-12-20T06:17:24.711Z,66.80
2018-12-20T06:19:00.743Z,67.47
2018-12-20T06:20:36.750Z,59.40
2018-12-20T06:22:12.988Z,64.35
2018-12-20T06:23:49.118Z,68.78
2018-12-20T06:25:25.013Z,64.40
2018-12-20T06:27:00.925Z,65.03
2018-12-20T06:28:36.748Z,66.50
2018-12-20T06:30:12.829Z,61.80
2018-12-20T06:31:48.550Z,71.50
2018-12-20T06:33:24.422Z,65.05
2018-12-20T06:35:00.526Z,62.20
2018-12-20T06:36:36.470Z,61.48
2018-12-20T06:38:12.337Z,67.45
2018-12-20T06:39:48.235Z,65.52
2018-12-20T06:41:24.014Z,62.00
2018-12-20T06:42:59.957Z,62.50
2018-12-20T06:44:35.770Z,68.40
2018-12-20T06:46:11.503Z,64.72
2018-12-20T06:47:49.469Z,67.17
2018-12-20T06:49:25.335Z,63.28
2018-12-20T06:51:01.000Z,68.20
2018-12-20T06:52:36.974Z,64.30
2018-12-20T06:54:12.604Z,63.70
2018-12-20T06:55:48.323Z,58.15
2018-12-20T06:57:23.927Z,66.80
2018-12-20T06:58:59.583Z,63.85
2018-12-20T07:00:35.393Z,61.63
2018-12-20T07:02:11.137Z,57.03
2018-12-20T07:03:46.849Z,62.00
2018-12-20T07:05:22.882Z,56.83
2018-12-20T07:06:58.595Z,62.15
2018-12-20T07:08:34.630Z,64.10
2018-12-20T07:10:10.969Z,56.60
2018-12-20T07:11:46.759Z,57.25
2018-12-20T07:13:22.619Z,61.15
2018-12-20T07:14:58.406Z,56.35
2018-12-20T07:16:34.391Z,59.38
2018-12-20T07:18:10.363Z,60.10
2018-12-20T07:19:46.104Z,62.93
2018-12-20T07:21:21.811Z,60.33
2018-12-20T07:22:57.468Z,61.00
2018-12-20T07:24:33.285Z,61.50
2018-12-20T07:26:09.094Z,64.42
2018-12-20T07:27:44.767Z,57.90
2018-12-20T07:29:20.413Z,55.83
2018-12-20T07:30:56.230Z,59.50
2018-12-20T07:32:32.035Z,55.55
2018-12-20T07:34:07.758Z,55.75
2018-12-20T07:35:43.535Z,54.03
2018-12-20T07:37:19.220Z,55.95
2018-12-20T07:38:54.909Z,50.58
2018-12-20T07:40:30.797Z,54.20
2018-12-20T07:42:07.233Z,55.10
2018-12-20T07:43:42.926Z,53.58
2018-12-20T07:45:18.795Z,52.15
2018-12-20T07:46:54.698Z,55.03
2018-12-20T07:48:32.222Z,50.92
2018-12-20T07:50:10.546Z,50.43
2018-12-20T07:51:46.469Z,56.90
2018-12-20T07:53:22.287Z,55.43
2018-12-20T07:54:58.420Z,54.30
2018-12-20T07:56:34.201Z,49.20
2018-12-20T07:58:10.120Z,49.55
2018-12-20T07:59:46.052Z,48.68
2018-12-20T08:01:22.021Z,51.05
2018-12-20T08:02:58.023Z,46.88
2018-12-20T08:04:33.898Z,48.10
2018-12-20T08:06:09.617Z,46.83
2018-12-20T08:07:45.564Z,49.38
2018-12-20T08:09:21.675Z,46.37
2018-12-20T08:10:57.566Z,44.75
2018-12-20T08:12:33.753Z,49.42
2018-12-20T08:14:09.430Z,47.88
2018-12-20T08:15:45.378Z,46.53
2018-12-20T08:17:21.159Z,47.43
2018-12-20T08:18:57.039Z,48.38
2018-12-20T08:20:33.122Z,44.42
2018-12-20T08:22:09.094Z,44.60
2018-12-20T08:23:45.020Z,44.90
2018-12-20T08:25:21.063Z,61.75
2018-12-20T08:26:57.076Z,45.92
2018-12-20T08:28:33.004Z,46.02
2018-12-20T08:30:10.371Z,49.03
2018-12-20T08:31:46.334Z,42.58
2018-12-20T08:33:22.323Z,47.85
2018-12-20T08:34:58.280Z,45.90
2018-12-20T08:36:34.242Z,46.20
2018-12-20T08:38:10.282Z,47.13
2018-12-20T08:39:46.056Z,44.80
2018-12-20T08:41:22.308Z,45.45
2018-12-20T08:42:58.165Z,46.53
2018-12-20T08:44:34.476Z,46.85
2018-12-20T08:46:10.815Z,43.75
2018-12-20T08:47:46.749Z,44.98
2018-12-20T08:49:22.698Z,44.75
2018-12-20T08:50:58.881Z,45.78
2018-12-20T08:52:35.050Z,45.67
2018-12-20T08:54:11.261Z,43.13
2018-12-20T08:55:47.709Z,52.45
2018-12-20T08:57:24.066Z,49.27
2018-12-20T08:59:00.976Z,46.73
2018-12-20T09:00:36.948Z,47.23
2018-12-20T09:02:13.637Z,50.58
2018-12-20T09:03:49.838Z,49.25
2018-12-20T09:05:26.100Z,47.00
2018-12-20T09:07:02.347Z,48.10
2018-12-20T09:08:38.803Z,50.03
2018-12-20T09:10:15.317Z,47.90
2018-12-20T09:11:52.426Z,49.38
2018-12-20T09:13:28.903Z,54.08
2018-12-20T09:15:06.105Z,48.38
2018-12-20T09:16:42.110Z,47.78
2018-12-20T09:18:18.046Z,48.58
2018-12-20T09:19:54.466Z,47.78
2018-12-20T09:21:30.581Z,49.03
2018-12-20T09:23:07.456Z,50.48
2018-12-20T09:24:43.474Z,51.48
2018-12-20T09:26:19.580Z,49.85
2018-12-20T09:27:55.624Z,50.50
2018-12-20T09:29:31.484Z,48.08
2018-12-20T09:31:14.824Z,49.48
2018-12-20T09:32:50.985Z,53.23
2018-12-20T09:34:27.417Z,48.65
2018-12-20T09:36:03.448Z,49.77
2018-12-20T09:37:39.317Z,46.35
2018-12-20T09:39:15.408Z,50.50
2018-12-20T09:40:51.488Z,53.35
2018-12-20T09:42:27.201Z,49.85
2018-12-20T09:44:03.371Z,50.67
2018-12-20T09:45:39.275Z,51.70
2018-12-20T09:47:20.152Z,52.60
2018-12-20T09:48:55.932Z,51.25
2018-12-20T09:50:31.678Z,50.08
2018-12-20T09:52:07.620Z,53.50
2018-12-20T09:53:43.734Z,54.73
2018-12-20T09:55:19.570Z,54.95
2018-12-20T09:56:55.409Z,51.88
2018-12-20T09:58:31.016Z,50.95
2018-12-20T10:00:10.113Z,53.87
2018-12-20T10:01:46.025Z,50.73
2018-12-20T10:03:21.825Z,50.95
2018-12-20T10:04:57.762Z,53.05
2018-12-20T10:06:34.431Z,51.73
2018-12-20T10:08:10.368Z,52.03
2018-12-20T10:09:46.197Z,52.65
2018-12-20T10:11:22.619Z,54.10
2018-12-20T10:12:58.779Z,50.65
2018-12-20T10:14:34.970Z,53.35
2018-12-20T10:16:11.140Z,51.02
2018-12-20T10:17:47.204Z,52.65
2018-12-20T10:19:23.379Z,51.00
2018-12-20T10:20:59.409Z,50.75
2018-12-20T10:22:35.633Z,53.55
2018-12-20T10:24:11.984Z,51.45
2018-12-20T10:25:48.138Z,53.52
2018-12-20T10:27:31.372Z,51.23
2018-12-20T10:29:03.136Z,50.12
2018-12-20T10:30:39.574Z,53.23
2018-12-20T10:32:16.019Z,52.50
2018-12-20T10:33:52.133Z,51.08
2018-12-20T10:35:28.432Z,52.30
2018-12-20T10:37:04.599Z,47.10
2018-12-20T10:38:41.744Z,50.35
2018-12-20T10:40:18.299Z,51.50
2018-12-20T10:41:54.623Z,50.67
2018-12-20T10:43:31.295Z,49.83
2018-12-20T10:45:09.077Z,48.83
2018-12-20T10:46:45.228Z,54.45
2018-12-20T10:48:21.394Z,50.25
2018-12-20T10:49:57.543Z,52.40
2018-12-20T10:51:33.708Z,54.30
2018-12-20T10:53:09.813Z,52.08
2018-12-20T10:54:46.125Z,51.98
2018-12-20T10:56:22.342Z,50.08
2018-12-20T10:57:58.841Z,54.40
2018-12-20T10:59:34.981Z,48.78
2018-12-20T11:01:16.169Z,51.28
2018-12-20T11:02:57.167Z,51.48
2018-12-20T11:04:37.098Z,48.55
2018-12-20T11:06:18.470Z,49.53
2018-12-20T11:08:01.156Z,47.25
2018-12-20T11:09:42.335Z,48.87
2018-12-20T11:11:22.723Z,53.33
2018-12-20T11:13:00.963Z,47.80
2018-12-20T11:14:37.130Z,49.58
2018-12-20T11:16:13.639Z,49.03
2018-12-20T11:17:49.861Z,47.23
2018-12-20T11:19:26.470Z,47.45
2018-12-20T11:21:04.582Z,49.93
2018-12-20T11:22:40.820Z,48.75
2018-12-20T11:24:17.144Z,48.17
2018-12-20T11:25:53.305Z,47.40
2018-12-20T11:27:29.616Z,45.63
2018-12-20T11:29:05.502Z,49.00
2018-12-20T11:30:41.788Z,45.28
2018-12-20T11:32:18.024Z,44.88
2018-12-20T11:33:54.546Z,45.15
2018-12-20T11:35:31.220Z,43.17
2018-12-20T11:37:08.327Z,42.20
2018-12-20T11:38:44.564Z,44.80
2018-12-20T11:40:21.306Z,45.48
2018-12-20T11:41:58.819Z,44.80
2018-12-20T11:43:42.359Z,43.55
2018-12-20T11:45:18.707Z,41.77
2018-12-20T11:46:55.535Z,44.65
2018-12-20T11:48:32.421Z,43.83
2018-12-20T11:50:12.856Z,47.10
2018-12-20T11:51:50.620Z,43.13
2018-12-20T11:53:26.923Z,44.15
2018-12-20T11:55:03.549Z,45.80
2018-12-20T11:56:39.992Z,43.05
2018-12-20T11:58:16.604Z,44.40
2018-12-20T11:59:53.616Z,46.63
2018-12-20T12:01:30.356Z,41.37
2018-12-20T12:03:17.618Z,44.08
2018-12-20T12:04:54.937Z,45.67
2018-12-20T12:06:31.867Z,45.65
2018-12-20T12:08:08.294Z,44.10
2018-12-20T12:09:45.250Z,46.42
2018-12-20T12:11:26.827Z,43.87
2018-12-20T12:13:05.414Z,46.28
2018-12-20T12:14:42.394Z,42.70
2018-12-20T12:16:19.268Z,47.45
2018-12-20T12:17:58.908Z,46.37
2018-12-20T12:19:45.351Z,44.73
2018-12-20T12:21:22.121Z,45.12
2018-12-20T12:23:00.740Z,44.40
2018-12-20T12:24:37.902Z,45.63
2018-12-20T12:26:15.671Z,44.83
2018-12-20T12:27:52.746Z,43.48
2018-12-20T12:29:30.296Z,44.83
2018-12-20T12:31:07.458Z,42.35
2018-12-20T12:32:44.088Z,42.67
2018-12-20T12:34:20.635Z,44.23
2018-12-20T12:35:57.657Z,41.98
2018-12-20T12:40:00.859Z,44.58
2018-12-20T12:43:51.365Z,42.08
2018-12-20T12:45:27.064Z,42.48
2018-12-20T12:47:07.272Z,42.62
2018-12-20T12:48:45.945Z,42.75
2018-12-20T12:50:26.634Z,42.70
2018-12-20T12:52:02.809Z,47.88
2018-12-20T12:55:27.844Z,47.23
2018-12-20T12:57:04.736Z,45.28
2018-12-20T12:58:43.719Z,45.92
2018-12-20T13:02:27.516Z,45.28
2018-12-20T13:04:05.201Z,48.80
2018-12-20T13:05:41.299Z,47.90
2018-12-20T13:07:17.178Z,45.70
2018-12-20T13:08:52.526Z,44.42
2018-12-20T13:10:28.006Z,44.93
2018-12-20T13:12:03.156Z,45.10
2018-12-20T13:13:38.092Z,49.00
2018-12-20T13:15:13.695Z,44.83
2018-12-20T13:16:48.665Z,44.05
2018-12-20T13:18:23.640Z,47.55
2018-12-20T13:19:58.564Z,47.17
2018-12-20T13:21:33.652Z,44.42
2018-12-20T13:23:09.094Z,49.63
2018-12-20T13:24:44.401Z,47.70
2018-12-20T13:26:19.722Z,46.23
2018-12-20T13:27:55.275Z,44.95
2018-12-20T13:29:30.435Z,47.13
2018-12-20T13:31:05.442Z,43.20
2018-12-20T13:32:40.417Z,46.23
2018-12-20T13:34:15.422Z,44.10
2018-12-20T13:35:50.497Z,48.10
2018-12-20T13:37:25.500Z,44.63
2018-12-20T13:39:05.152Z,48.02
2018-12-20T13:40:40.188Z,48.05
2018-12-20T13:42:15.218Z,48.28
2018-12-20T13:43:50.248Z,45.63
2018-12-20T13:45:26.064Z,48.63
2018-12-20T13:49:20.576Z,50.10
2018-12-20T13:50:56.292Z,46.95
2018-12-20T13:52:33.225Z,49.50
2018-12-20T13:54:08.380Z,47.90
2018-12-20T13:55:43.367Z,49.27
2018-12-20T13:57:18.440Z,51.80
2018-12-20T13:58:54.441Z,48.58
2018-12-20T14:00:29.728Z,50.78
2018-12-20T14:02:05.682Z,52.55
2018-12-20T14:03:57.092Z,49.73
2018-12-20T14:06:18.671Z,52.70
2018-12-20T14:07:58.960Z,49.00
2018-12-20T14:09:38.073Z,51.33
2018-12-20T14:11:15.071Z,50.60
2018-12-20T14:13:01.527Z,48.30
2018-12-20T14:14:41.191Z,52.98
2018-12-20T14:16:16.966Z,52.50
2018-12-20T14:17:52.622Z,52.85
2018-12-20T14:19:28.680Z,52.45
2018-12-20T14:21:04.315Z,50.12
2018-12-20T14:22:43.642Z,51.50
2018-12-20T14:24:19.130Z,51.25
2018-12-20T14:25:54.948Z,51.25
2018-12-20T14:27:30.769Z,53.78
2018-12-20T14:29:06.543Z,50.80
2018-12-20T14:30:42.280Z,55.48
2018-12-20T14:32:17.690Z,49.55
2018-12-20T14:33:53.178Z,51.20
2018-12-20T14:35:28.722Z,52.93
2018-12-20T14:37:04.313Z,52.67
2018-12-20T14:38:40.147Z,52.17
2018-12-20T14:40:15.751Z,50.60
2018-12-20T14:41:55.475Z,48.15
2018-12-20T14:43:30.491Z,55.80
2018-12-20T14:45:06.610Z,52.33
2018-12-20T14:46:41.599Z,52.80
2018-12-20T14:48:21.595Z,51.10
2018-12-20T14:52:39.282Z,52.67
2018-12-20T14:54:14.219Z,54.75
2018-12-20T14:55:49.179Z,56.85
2018-12-20T14:57:24.448Z,53.30
2018-12-20T14:58:59.427Z,53.02
2018-12-20T15:00:34.391Z,49.27
2018-12-20T15:02:09.351Z,53.02
2018-12-20T15:03:44.373Z,56.42
2018-12-20T15:05:19.378Z,49.65
2018-12-20T15:06:54.344Z,52.08
2018-12-20T15:08:29.313Z,51.50
2018-12-20T15:10:05.369Z,50.80
2018-12-20T15:11:40.371Z,57.03
2018-12-20T15:13:15.339Z,54.90
2018-12-20T15:14:50.347Z,53.42
2018-12-20T15:16:26.274Z,52.53
2018-12-20T15:18:01.291Z,51.92
2018-12-20T15:19:36.279Z,49.98
2018-12-20T15:21:11.307Z,51.15
2018-12-20T15:22:46.300Z,49.88
2018-12-20T15:24:21.281Z,51.40
2018-12-20T15:25:56.275Z,55.65
2018-12-20T15:27:31.236Z,51.95
2018-12-20T15:29:06.240Z,50.15
2018-12-20T15:30:41.283Z,47.33
2018-12-20T15:32:16.283Z,49.05
2018-12-20T15:33:52.476Z,49.33
2018-12-20T15:35:27.501Z,48.15
2018-12-20T15:37:02.486Z,49.63
2018-12-20T15:38:37.463Z,54.42
2018-12-20T15:40:12.421Z,53.15
2018-12-20T15:41:47.821Z,52.58
2018-12-20T15:43:22.781Z,50.67
2018-12-20T15:44:57.744Z,52.25
2018-12-20T15:46:32.719Z,55.28
2018-12-20T15:48:07.716Z,53.70
2018-12-20T15:49:42.796Z,51.48
2018-12-20T15:51:17.866Z,52.95
2018-12-20T15:52:52.956Z,51.33
2018-12-20T15:54:27.944Z,55.15
2018-12-20T15:56:03.055Z,58.25
2018-12-20T15:57:38.459Z,52.30
2018-12-20T15:59:13.497Z,54.70
2018-12-20T16:00:48.417Z,56.08
2018-12-20T16:02:23.328Z,53.70
2018-12-20T16:03:58.371Z,57.70
2018-12-20T16:05:33.356Z,58.35
2018-12-20T16:07:08.579Z,55.38
2018-12-20T16:08:43.724Z,56.95
2018-12-20T16:10:18.903Z,55.48
2018-12-20T16:11:53.831Z,52.17
2018-12-20T16:13:28.767Z,55.43
2018-12-20T16:15:03.885Z,57.58
2018-12-20T16:16:39.197Z,56.73
2018-12-20T16:18:14.191Z,55.43
2018-12-20T16:19:49.105Z,59.85
2018-12-20T16:21:24.011Z,54.63
2018-12-20T16:22:59.215Z,60.00
2018-12-20T16:24:34.164Z,55.92
2018-12-20T16:26:09.118Z,59.13
2018-12-20T16:27:45.080Z,58.63
2018-12-20T16:29:20.082Z,57.93
2018-12-20T16:30:55.044Z,55.95
2018-12-20T16:32:30.219Z,64.92
2018-12-20T16:34:05.153Z,59.30
2018-12-20T16:35:40.141Z,58.40
2018-12-20T16:37:25.309Z,60.30
2018-12-20T16:39:00.292Z,60.85
2018-12-20T16:40:35.285Z,59.53
2018-12-20T16:47:25.691Z,61.88
2018-12-20T16:49:00.834Z,58.87
2018-12-20T16:50:35.971Z,68.75
2018-12-20T16:52:11.245Z,63.73
2018-12-20T16:53:46.335Z,64.07
2018-12-20T16:55:21.492Z,62.73
2018-12-20T16:56:56.887Z,67.60
2018-12-20T16:58:32.199Z,67.75
2018-12-20T17:00:09.570Z,66.28
2018-12-20T17:01:44.722Z,67.12
2018-12-20T17:03:19.843Z,68.30
2018-12-20T17:04:54.972Z,71.55
2018-12-20T17:06:30.411Z,64.92
2018-12-20T17:08:05.723Z,68.57
2018-12-20T17:09:41.137Z,66.15
2018-12-20T17:11:16.196Z,64.58
2018-12-20T17:12:54.260Z,70.12
2018-12-20T17:14:29.259Z,67.58
2018-12-20T17:16:05.392Z,66.90
2018-12-20T17:17:40.350Z,69.55
2018-12-20T17:19:22.177Z,74.07
2018-12-20T17:20:52.430Z,69.05
2018-12-20T17:22:27.533Z,73.52
2018-12-20T17:24:02.478Z,70.60
2018-12-20T17:25:37.540Z,71.77
2018-12-20T17:27:12.548Z,72.70
2018-12-20T17:28:47.524Z,69.90
2018-12-20T17:30:22.572Z,69.53
2018-12-20T17:31:57.795Z,73.05
2018-12-20T17:33:32.806Z,69.58
2018-12-20T17:35:07.831Z,71.80
2018-12-20T17:36:42.844Z,69.77
2018-12-20T17:38:17.904Z,69.15
2018-12-20T17:39:52.887Z,68.45
2018-12-20T17:41:27.862Z,74.27
2018-12-20T17:43:02.949Z,74.97
2018-12-20T17:44:38.013Z,74.45
2018-12-20T17:46:12.980Z,73.42
2018-12-20T17:47:47.944Z,74.55
2018-12-20T17:49:30.350Z,75.15
2018-12-20T17:50:59.962Z,79.50
2018-12-20T17:52:35.004Z,78.83
2018-12-20T17:54:10.032Z,81.97
2018-12-20T17:55:45.094Z,90.10
2018-12-20T17:57:20.234Z,75.65
2018-12-20T17:58:55.230Z,80.77
2018-12-20T18:00:30.297Z,80.07
2018-12-20T18:02:05.319Z,84.32
2018-12-20T18:03:40.337Z,77.67
2018-12-20T18:05:15.315Z,80.70
2018-12-20T18:06:50.320Z,81.42
2018-12-20T18:08:25.776Z,84.13
2018-12-20T18:10:00.826Z,77.40
2018-12-20T18:11:35.803Z,80.97
2018-12-20T18:13:10.991Z,74.58
2018-12-20T18:14:46.084Z,73.42
2018-12-20T18:16:21.201Z,71.50
2018-12-20T18:17:56.137Z,76.07
2018-12-20T18:19:38.840Z,73.15
2018-12-20T18:21:08.485Z,72.03
2018-12-20T18:22:43.446Z,68.90
2018-12-20T18:24:19.228Z,73.85
2018-12-20T18:25:54.228Z,73.65
2018-12-20T18:27:29.437Z,77.42
2018-12-20T18:29:04.631Z,76.50
2018-12-20T18:30:39.587Z,77.45
2018-12-20T18:32:14.867Z,73.90
2018-12-20T18:33:49.857Z,74.03
2018-12-20T18:35:24.834Z,74.12
2018-12-20T18:36:59.846Z,73.60
2018-12-20T18:38:34.933Z,73.70
2018-12-20T18:40:11.188Z,68.22
2018-12-20T18:41:46.128Z,73.00
2018-12-20T18:43:21.261Z,73.85
2018-12-20T18:44:56.222Z,71.87
2018-12-20T18:46:31.182Z,75.55
2018-12-20T18:48:06.975Z,75.85
2018-12-20T18:49:47.484Z,70.35
2018-12-20T18:51:19.098Z,73.60
2018-12-20T18:52:54.051Z,75.45
2018-12-20T18:54:29.103Z,75.92
2018-12-20T18:56:04.246Z,72.92
2018-12-20T18:57:39.333Z,64.97
2018-12-20T18:59:14.367Z,70.32
2018-12-20T19:00:49.380Z,69.15
2018-12-20T19:02:24.317Z,71.70
2018-12-20T19:03:59.232Z,73.60
2018-12-20T19:05:34.136Z,71.37
2018-12-20T19:07:09.199Z,74.80
2018-12-20T19:08:44.159Z,72.78
2018-12-20T19:10:20.896Z,78.92
2018-12-20T19:11:55.856Z,69.85
2018-12-20T19:13:30.939Z,78.33
2018-12-20T19:15:08.370Z,75.10
2018-12-20T19:16:46.222Z,70.47
2018-12-20T19:18:21.340Z,60.65
2018-12-20T19:19:56.627Z,69.90
2018-12-20T19:21:31.915Z,67.60
2018-12-20T19:23:06.932Z,70.52
2018-12-20T19:24:41.879Z,69.27
2018-12-20T19:26:16.885Z,68.10
2018-12-20T19:27:52.031Z,75.50
2018-12-20T19:29:27.521Z,72.15
2018-12-20T19:31:02.627Z,69.12
2018-12-20T19:32:37.841Z,71.17
2018-12-20T19:34:13.018Z,71.57
2018-12-20T19:35:52.222Z,69.60
2018-12-20T19:37:27.281Z,70.42
2018-12-20T19:39:03.520Z,68.22
2018-12-20T19:40:38.559Z,65.32
2018-12-20T19:42:16.298Z,70.52
2018-12-20T19:43:51.371Z,68.67
2018-12-20T19:45:26.396Z,68.95
2018-12-20T19:47:03.059Z,65.32
2018-12-20T19:48:38.586Z,67.20
2018-12-20T19:50:13.695Z,66.22
2018-12-20T19:51:48.706Z,68.65
2018-12-20T19:53:23.674Z,65.60
2018-12-20T19:54:58.644Z,67.40
2018-12-20T19:56:33.556Z,65.87
2018-12-20T19:58:08.538Z,62.13
2018-12-20T19:59:43.516Z,63.55
2018-12-20T20:01:18.480Z,62.93
2018-12-20T20:02:53.541Z,64.17
2018-12-20T20:04:28.524Z,68.17
2018-12-20T20:06:03.489Z,67.22
2018-12-20T20:07:38.438Z,61.65
2018-12-20T20:09:13.433Z,60.85
2018-12-20T20:10:48.379Z,57.53
2018-12-20T20:12:23.318Z,61.33
2018-12-20T20:13:58.264Z,63.75
2018-12-20T20:15:33.250Z,60.60
2018-12-20T20:17:08.175Z,60.98
2018-12-20T20:18:43.153Z,57.75
2018-12-20T20:20:18.148Z,58.15
2018-12-20T20:21:53.150Z,62.48
2018-12-20T20:23:28.095Z,57.73
2018-12-20T20:25:03.035Z,58.10
2018-12-20T20:26:38.068Z,58.80
2018-12-20T20:28:13.126Z,58.80
2018-12-20T20:29:48.035Z,61.33
2018-12-20T20:31:22.986Z,59.53
2018-12-20T20:32:57.921Z,56.02
2018-12-20T20:34:32.900Z,55.30
2018-12-20T20:36:07.844Z,51.33
2018-12-20T20:37:42.742Z,54.42
2018-12-20T20:39:17.696Z,53.15
2018-12-20T20:40:52.672Z,54.55
2018-12-20T20:42:27.608Z,47.40
2018-12-20T20:44:02.548Z,50.63
2018-12-20T20:45:37.686Z,49.48
2018-12-20T20:47:12.916Z,52.73
2018-12-20T20:48:47.845Z,49.73
2018-12-20T20:50:22.918Z,51.48
2018-12-20T20:51:57.940Z,49.58
2018-12-20T20:53:34.541Z,47.00
2018-12-20T20:55:10.367Z,44.75
2018-12-20T20:56:45.322Z,49.27
2018-12-20T20:58:20.971Z,47.35
2018-12-20T20:59:55.926Z,47.17
2018-12-20T21:01:30.865Z,45.60
2018-12-20T21:03:05.869Z,44.85
2018-12-20T21:04:40.923Z,46.30
2018-12-20T21:06:15.828Z,47.95